createdAt,value
2022-11-23T00:01:24.243Z,1.73
2022-11-23T00:05:28.595Z,4.20
2022-11-23T00:09:31.682Z,1.20
2022-11-23T00:13:39.401Z,1.27
2022-11-23T00:17:42.410Z,1.50
2022-11-23T00:21:45.392Z,0.93
2022-11-23T00:25:48.149Z,0.82
2022-11-23T00:29:51.185Z,1.33
2022-11-23T00:33:55.695Z,1.17
2022-11-23T00:37:58.969Z,0.90
2022-11-23T00:42:02.616Z,3.13
2022-11-23T00:46:26.498Z,1.25
2022-11-23T00:50:29.325Z,1.33
2022-11-23T00:54:32.081Z,1.38
2022-11-23T00:58:37.450Z,1.38
2022-11-23T01:02:40.286Z,2.08
2022-11-23T01:06:43.012Z,1.65
2022-11-23T01:10:46.157Z,1.75
2022-11-23T01:14:48.969Z,1.33
2022-11-23T01:18:56.249Z,1.38
2022-11-23T01:22:59.280Z,1.05
2022-11-23T01:27:02.123Z,2.08
2022-11-23T01:31:14.180Z,1.20
2022-11-23T01:35:22.403Z,1.10
2022-11-23T01:39:25.325Z,1.52
2022-11-23T01:43:28.385Z,1.10
2022-11-23T01:47:31.724Z,1.52
2022-11-23T01:51:41.223Z,1.65
2022-11-23T01:55:46.544Z,3.15
2022-11-23T01:59:51.074Z,1.35
2022-11-23T02:03:56.083Z,1.48
2022-11-23T02:08:01.369Z,1.02
2022-11-23T02:12:10.904Z,1.42
2022-11-23T02:16:14.911Z,2.30
2022-11-23T02:20:19.094Z,4.53
2022-11-23T02:24:33.796Z,2.00
2022-11-23T02:28:48.056Z,1.10
2022-11-23T02:32:50.982Z,1.95
2022-11-23T02:36:56.615Z,1.73
2022-11-23T02:40:59.729Z,1.00
2022-11-23T02:45:33.360Z,0.98
2022-11-23T02:49:37.575Z,2.00
2022-11-23T02:53:40.337Z,1.63
2022-11-23T02:57:45.568Z,2.22
2022-11-23T03:01:49.130Z,2.15
2022-11-23T03:05:51.918Z,2.30
2022-11-23T03:09:55.299Z,3.33
2022-11-23T03:13:58.291Z,3.45
2022-11-23T03:18:02.536Z,3.83
2022-11-23T03:22:06.872Z,3.25
2022-11-23T03:26:13.188Z,2.75
2022-11-23T03:30:25.480Z,3.38
2022-11-23T03:34:29.683Z,2.22
2022-11-23T03:38:32.882Z,2.50
2022-11-23T03:42:36.057Z,3.80
2022-11-23T03:46:39.141Z,2.95
2022-11-23T03:50:42.478Z,2.47
2022-11-23T03:54:47.401Z,3.65
2022-11-23T03:58:50.622Z,2.00
2022-11-23T04:02:54.854Z,3.35
2022-11-23T04:07:23.668Z,5.18
2022-11-23T04:11:30.484Z,2.75
2022-11-23T04:15:33.267Z,1.60
2022-11-23T04:19:36.767Z,1.35
2022-11-23T04:23:39.707Z,1.75
2022-11-23T04:27:46.330Z,1.42
2022-11-23T04:31:50.054Z,1.52
2022-11-23T04:35:54.814Z,1.58
2022-11-23T04:39:57.954Z,1.23
2022-11-23T04:44:11.716Z,1.40
2022-11-23T04:48:16.603Z,2.60
2022-11-23T04:52:19.365Z,2.38
2022-11-23T04:56:23.776Z,2.28
2022-11-23T05:00:27.830Z,1.80
2022-11-23T05:04:34.480Z,3.22
2022-11-23T05:08:38.687Z,1.58
2022-11-23T05:13:07.384Z,4.50
2022-11-23T05:17:10.989Z,1.67
2022-11-23T05:21:16.498Z,2.15
2022-11-23T05:25:19.900Z,1.00
2022-11-23T05:29:29.427Z,1.95
2022-11-23T05:33:32.797Z,3.78
2022-11-23T05:37:36.400Z,3.78
2022-11-23T05:41:42.946Z,1.48
2022-11-23T05:46:02.075Z,1.38
2022-11-23T05:50:07.455Z,2.30
2022-11-23T05:54:12.686Z,1.63
2022-11-23T05:58:47.505Z,2.00
2022-11-23T06:02:50.363Z,1.83
2022-11-23T06:06:54.850Z,1.67
2022-11-23T06:11:01.600Z,2.08
2022-11-23T06:15:07.013Z,1.40
2022-11-23T06:19:10.601Z,1.50
2022-11-23T06:23:17.840Z,1.95
2022-11-23T06:27:20.859Z,2.20
2022-11-23T06:31:26.859Z,6.65
2022-11-23T06:35:29.930Z,4.07
2022-11-23T06:39:33.287Z,3.65
2022-11-23T06:43:37.779Z,4.10
2022-11-23T06:47:41.372Z,6.45
2022-11-23T06:51:46.240Z,7.05
2022-11-23T06:55:49.342Z,3.35
2022-11-23T06:59:54.766Z,3.42
2022-11-23T07:04:03.740Z,3.05
2022-11-23T07:12:15.041Z,2.90
2022-11-23T07:16:19.385Z,3.15
2022-11-23T07:20:22.331Z,3.80
2022-11-23T07:24:25.263Z,6.35
2022-11-23T07:28:28.112Z,5.45
2022-11-23T07:32:31.000Z,11.35
2022-11-23T07:36:33.851Z,5.97
2022-11-23T07:40:38.132Z,7.15
2022-11-23T07:44:43.055Z,7.07
2022-11-23T07:48:46.589Z,12.23
2022-11-23T07:52:49.867Z,10.80
2022-11-23T07:56:52.664Z,7.20
2022-11-23T08:00:55.603Z,7.35
2022-11-23T08:04:58.689Z,6.20
2022-11-23T08:09:01.446Z,8.18
2022-11-23T08:13:06.544Z,8.55
2022-11-23T08:17:09.427Z,8.15
2022-11-23T08:21:12.367Z,6.55
2022-11-23T08:25:15.374Z,7.30
2022-11-23T08:29:18.127Z,8.80
2022-11-23T08:33:20.986Z,7.40
2022-11-23T08:37:23.770Z,6.85
2022-11-23T08:41:27.441Z,8.57
2022-11-23T08:45:30.209Z,8.38
2022-11-23T08:49:33.625Z,6.63
2022-11-23T08:53:37.498Z,7.78
2022-11-23T08:57:40.382Z,7.15
2022-11-23T09:01:43.735Z,5.20
2022-11-23T09:05:46.670Z,6.05
2022-11-23T09:09:49.441Z,4.88
2022-11-23T09:13:52.756Z,5.63
2022-11-23T09:17:56.568Z,4.43
2022-11-23T09:21:59.378Z,5.15
2022-11-23T09:26:03.951Z,4.93
2022-11-23T09:30:07.459Z,3.92
2022-11-23T09:34:13.816Z,5.43
2022-11-23T09:38:17.128Z,4.75
2022-11-23T09:42:40.974Z,4.63
2022-11-23T09:47:19.574Z,5.63
2022-11-23T09:51:23.584Z,5.60
2022-11-23T09:55:39.802Z,5.43
2022-11-23T09:59:50.179Z,5.47
2022-11-23T10:03:53.436Z,4.78
2022-11-23T10:08:02.024Z,4.93
2022-11-23T10:12:10.941Z,7.72
2022-11-23T10:16:41.116Z,7.13
2022-11-23T10:21:02.617Z,6.35
2022-11-23T10:25:22.728Z,5.68
2022-11-23T10:29:38.314Z,4.97
2022-11-23T10:34:01.291Z,4.88
2022-11-23T10:38:19.148Z,4.93
2022-11-23T10:42:29.537Z,3.60
2022-11-23T10:46:39.459Z,4.10
2022-11-23T10:50:42.418Z,3.78
2022-11-23T10:54:52.705Z,4.70
2022-11-23T10:58:55.790Z,3.38
2022-11-23T11:02:59.792Z,4.15
2022-11-23T11:07:22.479Z,3.78
2022-11-23T11:11:31.290Z,3.60
2022-11-23T11:15:36.210Z,4.25
2022-11-23T11:19:41.741Z,4.15
2022-11-23T11:24:00.194Z,4.32
2022-11-23T11:28:05.307Z,5.10
2022-11-23T11:32:43.264Z,4.00
2022-11-23T11:37:11.235Z,4.25
2022-11-23T11:41:15.825Z,4.38
2022-11-23T11:45:37.772Z,3.60
2022-11-23T11:49:46.114Z,3.95
2022-11-23T11:54:04.513Z,3.90
2022-11-23T11:58:12.885Z,3.67
2022-11-23T12:02:26.900Z,4.00
2022-11-23T12:06:50.465Z,3.67
2022-11-23T12:10:59.323Z,4.55
2022-11-23T12:15:11.055Z,2.88
2022-11-23T12:19:43.977Z,3.15
2022-11-23T12:24:21.094Z,3.20
2022-11-23T12:28:52.412Z,3.00
2022-11-23T12:33:04.429Z,2.00
2022-11-23T12:37:33.756Z,2.10
2022-11-23T12:42:06.408Z,3.00
2022-11-23T12:46:25.775Z,2.17
2022-11-23T12:51:23.944Z,2.65
2022-11-23T12:56:00.045Z,3.00
2022-11-23T13:00:13.300Z,2.10
2022-11-23T13:04:40.202Z,7.32
2022-11-23T13:09:10.457Z,3.78
2022-11-23T13:13:21.594Z,3.63
2022-11-23T13:17:36.435Z,4.10
2022-11-23T13:21:43.676Z,2.78
2022-11-23T13:26:15.748Z,3.17
2022-11-23T13:31:13.539Z,4.22
2022-11-23T13:34:53.752Z,3.03
2022-11-23T13:38:57.659Z,2.10
2022-11-23T13:43:05.566Z,1.83
2022-11-23T13:47:20.314Z,3.92
2022-11-23T13:51:33.653Z,5.07
2022-11-23T13:55:38.710Z,2.17
2022-11-23T13:59:41.680Z,5.70
2022-11-23T14:03:48.986Z,3.95
2022-11-23T14:07:52.577Z,2.42
2022-11-23T14:12:03.828Z,4.40
2022-11-23T14:16:13.034Z,4.75
2022-11-23T14:20:24.913Z,3.15
2022-11-23T14:24:46.015Z,4.18
2022-11-23T14:29:07.710Z,3.20
2022-11-23T14:33:49.086Z,5.28
2022-11-23T14:38:20.474Z,3.13
2022-11-23T14:42:27.346Z,4.63
2022-11-23T14:46:30.422Z,4.70
2022-11-23T14:50:34.293Z,4.80
2022-11-23T14:54:38.727Z,3.63
2022-11-23T14:58:41.741Z,3.85
2022-11-23T15:02:44.545Z,4.45
2022-11-23T15:06:49.714Z,4.55
2022-11-23T15:11:12.845Z,7.60
2022-11-23T15:15:22.021Z,5.63
2022-11-23T15:19:29.642Z,3.67
2022-11-23T15:23:38.689Z,4.97
2022-11-23T15:27:42.590Z,7.85
2022-11-23T15:32:06.802Z,5.40
2022-11-23T15:36:08.450Z,6.22
2022-11-23T15:40:16.356Z,3.75
2022-11-23T15:44:31.461Z,7.35
2022-11-23T15:48:35.665Z,6.57
2022-11-23T15:52:38.646Z,3.85
2022-11-23T15:56:45.798Z,5.65
2022-11-23T16:00:53.559Z,6.82
2022-11-23T16:05:16.117Z,6.00
2022-11-23T16:09:51.619Z,5.13
2022-11-23T16:18:18.926Z,9.95
2022-11-23T16:22:30.858Z,4.30
2022-11-23T16:26:34.258Z,9.05
2022-11-23T16:30:39.612Z,6.53
2022-11-23T16:34:42.333Z,24.75
2022-11-23T16:38:45.406Z,11.23
2022-11-23T16:42:52.940Z,12.38
2022-11-23T16:46:55.756Z,16.55
2022-11-23T16:50:58.443Z,12.48
2022-11-23T16:55:01.367Z,15.65
2022-11-23T16:59:04.506Z,10.48
2022-11-23T17:03:14.599Z,9.73
2022-11-23T17:07:18.484Z,14.32
2022-11-23T17:11:23.842Z,11.60
2022-11-23T17:15:26.916Z,13.25
2022-11-23T17:19:32.717Z,13.80
2022-11-23T17:23:36.363Z,11.70
2022-11-23T17:27:41.940Z,16.05
2022-11-23T17:31:45.726Z,14.75
2022-11-23T17:35:48.817Z,16.80
2022-11-23T17:39:52.145Z,14.60
2022-11-23T17:43:55.311Z,19.60
2022-11-23T17:48:02.944Z,15.07
2022-11-23T17:52:06.215Z,16.20
2022-11-23T17:56:17.718Z,13.75
2022-11-23T18:00:23.059Z,12.55
2022-11-23T18:04:25.791Z,13.35
2022-11-23T18:08:30.166Z,14.52
2022-11-23T18:12:34.402Z,12.75
2022-11-23T18:16:38.217Z,21.52
2022-11-23T18:20:41.127Z,16.95
2022-11-23T18:24:44.096Z,15.02
2022-11-23T18:28:47.230Z,10.40
2022-11-23T18:32:50.285Z,7.35
2022-11-23T18:36:53.447Z,5.25
2022-11-23T18:40:56.524Z,10.68
2022-11-23T18:44:59.710Z,7.97
2022-11-23T18:49:02.515Z,7.43
2022-11-23T18:53:06.283Z,7.55
2022-11-23T18:57:09.576Z,7.05
2022-11-23T19:01:18.839Z,6.65
2022-11-23T19:05:22.785Z,10.95
2022-11-23T19:09:25.603Z,6.90
2022-11-23T19:13:28.740Z,6.00
2022-11-23T19:17:31.572Z,8.15
2022-11-23T19:21:36.591Z,8.55
2022-11-23T19:25:39.814Z,5.75
2022-11-23T19:29:43.057Z,7.05
2022-11-23T19:33:47.910Z,10.15
2022-11-23T19:37:52.671Z,8.32
2022-11-23T19:41:55.834Z,5.45
2022-11-23T19:46:02.454Z,7.07
2022-11-23T19:50:05.771Z,4.40
2022-11-23T19:54:10.083Z,4.97
2022-11-23T19:58:14.380Z,4.80
2022-11-23T20:02:25.439Z,6.15
2022-11-23T20:06:31.190Z,6.95
2022-11-23T20:10:34.136Z,5.90
2022-11-23T20:14:36.881Z,5.60
2022-11-23T20:18:40.522Z,9.05
2022-11-23T20:22:45.050Z,6.25
2022-11-23T20:26:47.835Z,6.97
2022-11-23T20:30:51.486Z,6.32
2022-11-23T20:34:54.562Z,7.03
2022-11-23T20:38:58.328Z,5.40
2022-11-23T20:43:03.905Z,7.00
2022-11-23T20:47:06.850Z,7.20
2022-11-23T20:51:10.830Z,6.88
2022-11-23T20:55:16.176Z,6.80
2022-11-23T20:59:19.839Z,5.97
2022-11-23T21:03:25.166Z,7.68
2022-11-23T21:07:28.375Z,5.18
2022-11-23T21:11:49.679Z,7.20
2022-11-23T21:15:52.664Z,5.85
2022-11-23T21:19:55.687Z,5.35
2022-11-23T21:23:58.804Z,4.40
2022-11-23T21:28:03.369Z,4.25
2022-11-23T21:32:06.621Z,5.88
2022-11-23T21:36:12.093Z,6.88
2022-11-23T21:40:15.648Z,5.20
2022-11-23T21:44:19.317Z,5.93
2022-11-23T21:48:22.259Z,5.40
2022-11-23T21:52:25.062Z,4.47
2022-11-23T21:56:29.660Z,5.55
2022-11-23T22:00:32.627Z,3.30
2022-11-23T22:04:37.934Z,4.80
2022-11-23T22:08:50.079Z,4.35
2022-11-23T22:12:52.937Z,3.33
2022-11-23T22:16:56.855Z,5.28
2022-11-23T22:21:04.361Z,6.18
2022-11-23T22:25:07.461Z,4.13
2022-11-23T22:29:10.778Z,4.22
2022-11-23T22:33:13.971Z,4.25
2022-11-23T22:37:17.018Z,3.00
2022-11-23T22:41:19.928Z,4.05
2022-11-23T22:45:22.769Z,2.72
2022-11-23T22:49:25.813Z,5.85
2022-11-23T22:53:29.895Z,2.58
2022-11-23T22:57:32.730Z,3.85
2022-11-23T23:01:35.583Z,7.53
2022-11-23T23:05:38.831Z,5.90
2022-11-23T23:09:41.735Z,5.70
2022-11-23T23:13:44.516Z,6.57
2022-11-23T23:17:47.709Z,6.03
2022-11-23T23:21:50.973Z,6.88
2022-11-23T23:25:54.588Z,9.27
2022-11-23T23:29:57.389Z,8.45
2022-11-23T23:34:00.563Z,7.97
2022-11-23T23:38:03.388Z,8.88
2022-11-23T23:42:07.773Z,5.78
2022-11-23T23:46:12.689Z,6.13
2022-11-23T23:50:16.061Z,7.07
2022-11-23T23:54:19.156Z,2.13
2022-11-23T23:58:21.944Z,3.72
